sensor_id;sensor_type;location;lat;lon;timestamp;P1;durP1;ratioP1;P2;durP2;ratioP2
17890;SDS011;9071;48.220;14.480;2022-12-18T00:04:26;126.47;;;44.53;;
17890;SDS011;9071;48.220;14.480;2022-12-18T00:09:29;126.20;;;44.73;;
17890;SDS011;9071;48.220;14.480;2022-12-18T00:14:31;133.47;;;45.60;;
17890;SDS011;9071;48.220;14.480;2022-12-18T00:19:34;122.73;;;44.97;;
17890;SDS011;9071;48.220;14.480;2022-12-18T00:24:36;139.70;;;46.80;;
17890;SDS011;9071;48.220;14.480;2022-12-18T00:29:38;138.97;;;46.13;;
17890;SDS011;9071;48.220;14.480;2022-12-18T00:34:41;144.07;;;48.23;;
17890;SDS011;9071;48.220;14.480;2022-12-18T00:39:43;167.60;;;49.37;;
17890;SDS011;9071;48.220;14.480;2022-12-18T00:44:45;136.20;;;45.57;;
17890;SDS011;9071;48.220;14.480;2022-12-18T00:49:49;159.43;;;48.07;;
17890;SDS011;9071;48.220;14.480;2022-12-18T00:54:51;149.80;;;48.17;;
17890;SDS011;9071;48.220;14.480;2022-12-18T00:59:53;129.50;;;46.37;;
17890;SDS011;9071;48.220;14.480;2022-12-18T01:04:56;176.33;;;49.53;;
17890;SDS011;9071;48.220;14.480;2022-12-18T01:09:58;175.20;;;51.73;;
17890;SDS011;9071;48.220;14.480;2022-12-18T01:15:00;185.23;;;50.87;;
17890;SDS011;9071;48.220;14.480;2022-12-18T01:20:05;158.77;;;49.53;;
17890;SDS011;9071;48.220;14.480;2022-12-18T01:25:08;250.90;;;55.33;;
17890;SDS011;9071;48.220;14.480;2022-12-18T01:30:11;166.27;;;49.00;;
17890;SDS011;9071;48.220;14.480;2022-12-18T01:35:14;180.63;;;50.23;;
17890;SDS011;9071;48.220;14.480;2022-12-18T01:40:17;181.27;;;49.33;;
17890;SDS011;9071;48.220;14.480;2022-12-18T01:45:23;257.37;;;51.10;;
17890;SDS011;9071;48.220;14.480;2022-12-18T01:50:30;185.07;;;45.60;;
17890;SDS011;9071;48.220;14.480;2022-12-18T01:55:36;423.10;;;57.00;;
17890;SDS011;9071;48.220;14.480;2022-12-18T02:00:42;154.77;;;38.27;;
17890;SDS011;9071;48.220;14.480;2022-12-18T02:05:46;120.67;;;33.67;;
17890;SDS011;9071;48.220;14.480;2022-12-18T02:10:55;94.03;;;32.80;;
17890;SDS011;9071;48.220;14.480;2022-12-18T02:16:05;106.80;;;35.33;;
17890;SDS011;9071;48.220;14.480;2022-12-18T02:21:17;165.93;;;40.73;;
17890;SDS011;9071;48.220;14.480;2022-12-18T02:26:30;194.73;;;45.67;;
17890;SDS011;9071;48.220;14.480;2022-12-18T02:31:39;164.30;;;40.40;;
17890;SDS011;9071;48.220;14.480;2022-12-18T02:36:44;137.63;;;41.07;;
17890;SDS011;9071;48.220;14.480;2022-12-18T02:41:49;123.00;;;38.77;;
17890;SDS011;9071;48.220;14.480;2022-12-18T02:46:52;133.10;;;38.43;;
17890;SDS011;9071;48.220;14.480;2022-12-18T02:51:55;127.00;;;37.33;;
17890;SDS011;9071;48.220;14.480;2022-12-18T02:57:10;129.17;;;34.17;;
17890;SDS011;9071;48.220;14.480;2022-12-18T03:02:18;111.50;;;33.93;;
17890;SDS011;9071;48.220;14.480;2022-12-18T03:07:26;96.13;;;31.80;;
17890;SDS011;9071;48.220;14.480;2022-12-18T03:12:38;150.77;;;32.10;;
17890;SDS011;9071;48.220;14.480;2022-12-18T03:17:46;103.00;;;32.97;;
17890;SDS011;9071;48.220;14.480;2022-12-18T03:22:56;130.70;;;37.83;;
17890;SDS011;9071;48.220;14.480;2022-12-18T03:28:03;119.43;;;34.00;;
17890;SDS011;9071;48.220;14.480;2022-12-18T03:33:10;97.40;;;33.70;;
17890;SDS011;9071;48.220;14.480;2022-12-18T03:38:19;107.77;;;34.37;;
17890;SDS011;9071;48.220;14.480;2022-12-18T03:43:25;587.97;;;73.87;;
17890;SDS011;9071;48.220;14.480;2022-12-18T03:48:36;976.63;;;99.93;;
17890;SDS011;9071;48.220;14.480;2022-12-18T03:53:43;105.97;;;35.10;;
17890;SDS011;9071;48.220;14.480;2022-12-18T03:58:51;125.93;;;41.90;;
17890;SDS011;9071;48.220;14.480;2022-12-18T04:03:55;112.50;;;39.73;;
17890;SDS011;9071;48.220;14.480;2022-12-18T04:08:59;141.00;;;41.73;;
17890;SDS011;9071;48.220;14.480;2022-12-18T04:14:03;136.47;;;41.43;;
17890;SDS011;9071;48.220;14.480;2022-12-18T04:19:05;1235.57;;;122.53;;
17890;SDS011;9071;48.220;14.480;2022-12-18T04:24:07;112.07;;;36.33;;
17890;SDS011;9071;48.220;14.480;2022-12-18T04:29:11;115.60;;;39.47;;
17890;SDS011;9071;48.220;14.480;2022-12-18T04:34:13;109.23;;;36.27;;
17890;SDS011;9071;48.220;14.480;2022-12-18T04:39:15;113.37;;;37.30;;
17890;SDS011;9071;48.220;14.480;2022-12-18T04:44:19;113.40;;;38.10;;
17890;SDS011;9071;48.220;14.480;2022-12-18T04:49:21;1047.93;;;115.80;;
17890;SDS011;9071;48.220;14.480;2022-12-18T04:54:23;294.03;;;42.60;;
17890;SDS011;9071;48.220;14.480;2022-12-18T04:59:27;65.83;;;24.73;;
17890;SDS011;9071;48.220;14.480;2022-12-18T05:04:29;49.97;;;21.50;;
17890;SDS011;9071;48.220;14.480;2022-12-18T05:09:31;46.47;;;20.60;;
17890;SDS011;9071;48.220;14.480;2022-12-18T05:14:34;709.60;;;71.13;;
17890;SDS011;9071;48.220;14.480;2022-12-18T05:19:36;1240.90;;;108.83;;
17890;SDS011;9071;48.220;14.480;2022-12-18T05:24:38;1999.90;;;178.53;;
17890;SDS011;9071;48.220;14.480;2022-12-18T05:29:42;1338.93;;;129.03;;
17890;SDS011;9071;48.220;14.480;2022-12-18T05:34:44;628.33;;;66.70;;
17890;SDS011;9071;48.220;14.480;2022-12-18T05:39:46;58.47;;;21.80;;
17890;SDS011;9071;48.220;14.480;2022-12-18T05:44:49;72.20;;;24.53;;
17890;SDS011;9071;48.220;14.480;2022-12-18T05:49:51;50.60;;;21.93;;
17890;SDS011;9071;48.220;14.480;2022-12-18T05:54:53;47.67;;;18.23;;
17890;SDS011;9071;48.220;14.480;2022-12-18T05:59:57;65.30;;;24.50;;
17890;SDS011;9071;48.220;14.480;2022-12-18T06:04:59;71.60;;;24.37;;
17890;SDS011;9071;48.220;14.480;2022-12-18T06:10:01;62.27;;;22.97;;
17890;SDS011;9071;48.220;14.480;2022-12-18T06:15:05;87.17;;;25.47;;
17890;SDS011;9071;48.220;14.480;2022-12-18T06:20:08;73.47;;;24.07;;
17890;SDS011;9071;48.220;14.480;2022-12-18T06:25:10;57.60;;;23.23;;
17890;SDS011;9071;48.220;14.480;2022-12-18T06:30:14;60.67;;;22.63;;
17890;SDS011;9071;48.220;14.480;2022-12-18T06:35:16;80.10;;;25.30;;
17890;SDS011;9071;48.220;14.480;2022-12-18T06:40:19;75.57;;;27.27;;
17890;SDS011;9071;48.220;14.480;2022-12-18T06:45:22;74.77;;;25.77;;
17890;SDS011;9071;48.220;14.480;2022-12-18T06:50:24;67.57;;;24.70;;
17890;SDS011;9071;48.220;14.480;2022-12-18T06:55:26;70.87;;;24.40;;
17890;SDS011;9071;48.220;14.480;2022-12-18T07:00:30;60.23;;;22.10;;
17890;SDS011;9071;48.220;14.480;2022-12-18T07:05:32;60.80;;;21.60;;
17890;SDS011;9071;48.220;14.480;2022-12-18T07:10:34;55.77;;;21.80;;
17890;SDS011;9071;48.220;14.480;2022-12-18T07:15:43;62.40;;;24.63;;
17890;SDS011;9071;48.220;14.480;2022-12-18T07:20:45;84.80;;;33.73;;
17890;SDS011;9071;48.220;14.480;2022-12-18T07:25:48;53.03;;;24.33;;
17890;SDS011;9071;48.220;14.480;2022-12-18T07:30:51;37.00;;;16.83;;
17890;SDS011;9071;48.220;14.480;2022-12-18T07:35:53;34.20;;;14.47;;
17890;SDS011;9071;48.220;14.480;2022-12-18T07:40:59;32.67;;;13.20;;
17890;SDS011;9071;48.220;14.480;2022-12-18T07:46:03;39.53;;;16.47;;
17890;SDS011;9071;48.220;14.480;2022-12-18T07:51:06;50.87;;;19.33;;
17890;SDS011;9071;48.220;14.480;2022-12-18T07:56:10;53.03;;;20.03;;
17890;SDS011;9071;48.220;14.480;2022-12-18T08:01:14;57.97;;;20.53;;
17890;SDS011;9071;48.220;14.480;2022-12-18T08:06:17;53.97;;;21.13;;
17890;SDS011;9071;48.220;14.480;2022-12-18T08:11:19;62.00;;;24.90;;
17890;SDS011;9071;48.220;14.480;2022-12-18T08:16:23;59.27;;;21.13;;
17890;SDS011;9071;48.220;14.480;2022-12-18T08:21:26;64.47;;;21.87;;
17890;SDS011;9071;48.220;14.480;2022-12-18T08:26:30;53.30;;;19.93;;
17890;SDS011;9071;48.220;14.480;2022-12-18T08:31:34;62.03;;;21.47;;
17890;SDS011;9071;48.220;14.480;2022-12-18T08:36:36;68.90;;;23.20;;
17890;SDS011;9071;48.220;14.480;2022-12-18T08:41:38;65.10;;;26.47;;
17890;SDS011;9071;48.220;14.480;2022-12-18T08:46:42;55.53;;;22.97;;
17890;SDS011;9071;48.220;14.480;2022-12-18T08:51:45;61.17;;;24.23;;
17890;SDS011;9071;48.220;14.480;2022-12-18T08:56:47;68.73;;;24.57;;
17890;SDS011;9071;48.220;14.480;2022-12-18T09:01:53;57.63;;;22.50;;
17890;SDS011;9071;48.220;14.480;2022-12-18T09:06:55;42.13;;;18.53;;
17890;SDS011;9071;48.220;14.480;2022-12-18T09:11:57;39.00;;;16.93;;
17890;SDS011;9071;48.220;14.480;2022-12-18T09:17:01;37.30;;;17.33;;
17890;SDS011;9071;48.220;14.480;2022-12-18T09:22:03;32.63;;;14.83;;
17890;SDS011;9071;48.220;14.480;2022-12-18T09:27:05;26.07;;;13.03;;
17890;SDS011;9071;48.220;14.480;2022-12-18T09:32:08;26.40;;;12.60;;
17890;SDS011;9071;48.220;14.480;2022-12-18T09:37:10;23.27;;;11.83;;
17890;SDS011;9071;48.220;14.480;2022-12-18T09:42:12;32.00;;;15.80;;
17890;SDS011;9071;48.220;14.480;2022-12-18T09:47:23;37.20;;;16.37;;
17890;SDS011;9071;48.220;14.480;2022-12-18T09:52:29;39.00;;;16.53;;
17890;SDS011;9071;48.220;14.480;2022-12-18T09:57:35;39.53;;;17.83;;
17890;SDS011;9071;48.220;14.480;2022-12-18T10:02:45;32.40;;;16.10;;
17890;SDS011;9071;48.220;14.480;2022-12-18T10:07:50;36.23;;;16.10;;
17890;SDS011;9071;48.220;14.480;2022-12-18T10:13:01;27.27;;;14.33;;
17890;SDS011;9071;48.220;14.480;2022-12-18T10:18:15;29.70;;;14.60;;
17890;SDS011;9071;48.220;14.480;2022-12-18T10:23:26;30.53;;;15.33;;
17890;SDS011;9071;48.220;14.480;2022-12-18T10:28:35;34.87;;;16.53;;
17890;SDS011;9071;48.220;14.480;2022-12-18T10:33:40;34.37;;;17.07;;
17890;SDS011;9071;48.220;14.480;2022-12-18T10:38:42;40.53;;;18.63;;
17890;SDS011;9071;48.220;14.480;2022-12-18T10:43:44;40.40;;;18.60;;
17890;SDS011;9071;48.220;14.480;2022-12-18T10:48:51;39.23;;;19.30;;
17890;SDS011;9071;48.220;14.480;2022-12-18T10:53:56;38.17;;;18.50;;
17890;SDS011;9071;48.220;14.480;2022-12-18T10:59:01;40.03;;;17.23;;
17890;SDS011;9071;48.220;14.480;2022-12-18T11:04:08;40.83;;;19.73;;
17890;SDS011;9071;48.220;14.480;2022-12-18T11:09:18;40.67;;;20.07;;
17890;SDS011;9071;48.220;14.480;2022-12-18T11:14:22;48.00;;;23.23;;
17890;SDS011;9071;48.220;14.480;2022-12-18T11:19:30;45.10;;;20.50;;
17890;SDS011;9071;48.220;14.480;2022-12-18T11:24:35;45.13;;;20.73;;
17890;SDS011;9071;48.220;14.480;2022-12-18T11:29:38;41.67;;;19.87;;
17890;SDS011;9071;48.220;14.480;2022-12-18T11:34:43;46.67;;;20.37;;
17890;SDS011;9071;48.220;14.480;2022-12-18T11:39:49;40.27;;;19.00;;
17890;SDS011;9071;48.220;14.480;2022-12-18T11:44:58;40.63;;;19.37;;
17890;SDS011;9071;48.220;14.480;2022-12-18T11:50:09;41.57;;;20.20;;
17890;SDS011;9071;48.220;14.480;2022-12-18T11:55:15;42.00;;;18.43;;
17890;SDS011;9071;48.220;14.480;2022-12-18T12:00:21;36.37;;;18.23;;
17890;SDS011;9071;48.220;14.480;2022-12-18T12:05:27;41.57;;;18.60;;
17890;SDS011;9071;48.220;14.480;2022-12-18T12:10:39;40.10;;;18.70;;
17890;SDS011;9071;48.220;14.480;2022-12-18T12:15:58;38.03;;;18.47;;
17890;SDS011;9071;48.220;14.480;2022-12-18T12:21:15;40.07;;;18.90;;
17890;SDS011;9071;48.220;14.480;2022-12-18T12:26:24;38.07;;;18.87;;
17890;SDS011;9071;48.220;14.480;2022-12-18T12:31:37;41.00;;;19.53;;
17890;SDS011;9071;48.220;14.480;2022-12-18T12:37:00;37.47;;;18.43;;
17890;SDS011;9071;48.220;14.480;2022-12-18T12:42:12;39.03;;;19.87;;
17890;SDS011;9071;48.220;14.480;2022-12-18T12:47:38;38.07;;;19.60;;
17890;SDS011;9071;48.220;14.480;2022-12-18T12:52:45;39.60;;;18.43;;
17890;SDS011;9071;48.220;14.480;2022-12-18T12:57:51;40.53;;;18.90;;
17890;SDS011;9071;48.220;14.480;2022-12-18T13:03:03;35.97;;;18.63;;
17890;SDS011;9071;48.220;14.480;2022-12-18T13:08:21;34.73;;;18.27;;
17890;SDS011;9071;48.220;14.480;2022-12-18T13:13:24;41.10;;;19.13;;
17890;SDS011;9071;48.220;14.480;2022-12-18T13:18:26;40.80;;;19.43;;
17890;SDS011;9071;48.220;14.480;2022-12-18T13:23:33;43.20;;;19.97;;
17890;SDS011;9071;48.220;14.480;2022-12-18T13:28:49;40.33;;;20.07;;
17890;SDS011;9071;48.220;14.480;2022-12-18T13:33:55;42.67;;;18.77;;
17890;SDS011;9071;48.220;14.480;2022-12-18T13:44:38;36.97;;;16.73;;
17890;SDS011;9071;48.220;14.480;2022-12-18T13:49:43;38.80;;;19.37;;
17890;SDS011;9071;48.220;14.480;2022-12-18T13:54:47;34.93;;;16.17;;
17890;SDS011;9071;48.220;14.480;2022-12-18T13:59:52;34.47;;;15.60;;
17890;SDS011;9071;48.220;14.480;2022-12-18T14:04:55;34.90;;;16.47;;
17890;SDS011;9071;48.220;14.480;2022-12-18T14:09:58;36.27;;;15.90;;
17890;SDS011;9071;48.220;14.480;2022-12-18T14:15:02;36.23;;;16.23;;
17890;SDS011;9071;48.220;14.480;2022-12-18T14:20:12;40.60;;;15.93;;
17890;SDS011;9071;48.220;14.480;2022-12-18T14:25:18;43.77;;;18.90;;
17890;SDS011;9071;48.220;14.480;2022-12-18T14:30:27;42.30;;;18.23;;
17890;SDS011;9071;48.220;14.480;2022-12-18T14:35:31;40.57;;;18.13;;
17890;SDS011;9071;48.220;14.480;2022-12-18T14:40:35;44.23;;;19.33;;
17890;SDS011;9071;48.220;14.480;2022-12-18T14:45:38;42.70;;;17.80;;
17890;SDS011;9071;48.220;14.480;2022-12-18T14:50:42;39.93;;;18.90;;
17890;SDS011;9071;48.220;14.480;2022-12-18T14:55:46;38.67;;;17.80;;
17890;SDS011;9071;48.220;14.480;2022-12-18T15:00:49;43.70;;;18.73;;
17890;SDS011;9071;48.220;14.480;2022-12-18T15:05:51;39.87;;;18.30;;
17890;SDS011;9071;48.220;14.480;2022-12-18T15:10:55;39.57;;;17.73;;
17890;SDS011;9071;48.220;14.480;2022-12-18T15:15:57;49.10;;;19.63;;
17890;SDS011;9071;48.220;14.480;2022-12-18T15:21:07;41.17;;;17.13;;
17890;SDS011;9071;48.220;14.480;2022-12-18T15:26:14;47.83;;;18.30;;
17890;SDS011;9071;48.220;14.480;2022-12-18T15:31:24;44.47;;;18.37;;
17890;SDS011;9071;48.220;14.480;2022-12-18T15:36:31;42.07;;;18.10;;
17890;SDS011;9071;48.220;14.480;2022-12-18T15:41:37;39.47;;;16.33;;
17890;SDS011;9071;48.220;14.480;2022-12-18T15:46:41;44.27;;;18.23;;
17890;SDS011;9071;48.220;14.480;2022-12-18T15:51:44;39.77;;;17.80;;
17890;SDS011;9071;48.220;14.480;2022-12-18T15:56:51;40.17;;;19.20;;
17890;SDS011;9071;48.220;14.480;2022-12-18T16:02:13;38.93;;;16.47;;
17890;SDS011;9071;48.220;14.480;2022-12-18T16:07:18;43.20;;;18.37;;
17890;SDS011;9071;48.220;14.480;2022-12-18T16:12:22;48.07;;;19.03;;
17890;SDS011;9071;48.220;14.480;2022-12-18T16:17:26;39.07;;;17.13;;
17890;SDS011;9071;48.220;14.480;2022-12-18T16:22:28;42.57;;;18.57;;
17890;SDS011;9071;48.220;14.480;2022-12-18T16:27:33;44.83;;;19.43;;
17890;SDS011;9071;48.220;14.480;2022-12-18T16:32:35;41.93;;;17.27;;
17890;SDS011;9071;48.220;14.480;2022-12-18T16:37:37;41.20;;;16.60;;
17890;SDS011;9071;48.220;14.480;2022-12-18T16:42:41;38.73;;;17.33;;
17890;SDS011;9071;48.220;14.480;2022-12-18T16:47:45;37.13;;;15.33;;
17890;SDS011;9071;48.220;14.480;2022-12-18T16:52:47;36.80;;;17.47;;
17890;SDS011;9071;48.220;14.480;2022-12-18T16:57:52;41.90;;;17.33;;
17890;SDS011;9071;48.220;14.480;2022-12-18T17:02:55;43.07;;;17.77;;
17890;SDS011;9071;48.220;14.480;2022-12-18T17:07:58;44.43;;;18.10;;
17890;SDS011;9071;48.220;14.480;2022-12-18T17:13:02;42.83;;;19.20;;
17890;SDS011;9071;48.220;14.480;2022-12-18T17:18:04;37.43;;;17.00;;
17890;SDS011;9071;48.220;14.480;2022-12-18T17:23:06;44.27;;;19.67;;
17890;SDS011;9071;48.220;14.480;2022-12-18T17:28:10;38.53;;;16.40;;
17890;SDS011;9071;48.220;14.480;2022-12-18T17:33:12;44.50;;;17.63;;
17890;SDS011;9071;48.220;14.480;2022-12-18T17:38:16;39.97;;;17.23;;
17890;SDS011;9071;48.220;14.480;2022-12-18T17:43:21;38.73;;;17.17;;
17890;SDS011;9071;48.220;14.480;2022-12-18T17:48:24;41.60;;;18.07;;
17890;SDS011;9071;48.220;14.480;2022-12-18T17:53:28;42.97;;;17.83;;
17890;SDS011;9071;48.220;14.480;2022-12-18T17:58:32;39.07;;;17.90;;
17890;SDS011;9071;48.220;14.480;2022-12-18T18:03:37;39.30;;;18.37;;
17890;SDS011;9071;48.220;14.480;2022-12-18T18:08:40;39.47;;;17.37;;
17890;SDS011;9071;48.220;14.480;2022-12-18T18:13:43;42.17;;;18.67;;
17890;SDS011;9071;48.220;14.480;2022-12-18T18:19:06;46.87;;;19.30;;
17890;SDS011;9071;48.220;14.480;2022-12-18T18:24:10;41.07;;;18.60;;
17890;SDS011;9071;48.220;14.480;2022-12-18T18:29:15;45.53;;;19.03;;
17890;SDS011;9071;48.220;14.480;2022-12-18T18:34:19;43.67;;;18.07;;
17890;SDS011;9071;48.220;14.480;2022-12-18T18:39:23;41.93;;;17.33;;
17890;SDS011;9071;48.220;14.480;2022-12-18T18:44:26;42.40;;;17.60;;
17890;SDS011;9071;48.220;14.480;2022-12-18T18:49:28;44.23;;;18.60;;
17890;SDS011;9071;48.220;14.480;2022-12-18T18:54:31;41.87;;;18.67;;
17890;SDS011;9071;48.220;14.480;2022-12-18T18:59:34;42.40;;;18.90;;
17890;SDS011;9071;48.220;14.480;2022-12-18T19:04:36;42.20;;;19.43;;
17890;SDS011;9071;48.220;14.480;2022-12-18T19:09:39;38.23;;;18.20;;
17890;SDS011;9071;48.220;14.480;2022-12-18T19:14:42;44.13;;;18.90;;
17890;SDS011;9071;48.220;14.480;2022-12-18T19:19:44;45.90;;;20.13;;
17890;SDS011;9071;48.220;14.480;2022-12-18T19:24:47;48.57;;;20.13;;
17890;SDS011;9071;48.220;14.480;2022-12-18T19:29:50;43.87;;;18.50;;
17890;SDS011;9071;48.220;14.480;2022-12-18T19:34:52;35.97;;;17.13;;
17890;SDS011;9071;48.220;14.480;2022-12-18T19:39:54;41.83;;;18.50;;
17890;SDS011;9071;48.220;14.480;2022-12-18T19:44:58;39.50;;;18.37;;
17890;SDS011;9071;48.220;14.480;2022-12-18T19:50:00;42.73;;;18.70;;
17890;SDS011;9071;48.220;14.480;2022-12-18T19:55:02;46.13;;;19.77;;
17890;SDS011;9071;48.220;14.480;2022-12-18T20:00:06;48.07;;;22.50;;
17890;SDS011;9071;48.220;14.480;2022-12-18T20:05:10;43.27;;;20.67;;
17890;SDS011;9071;48.220;14.480;2022-12-18T20:10:13;37.83;;;17.90;;
17890;SDS011;9071;48.220;14.480;2022-12-18T20:15:16;44.93;;;19.73;;
17890;SDS011;9071;48.220;14.480;2022-12-18T20:20:18;35.33;;;15.40;;
17890;SDS011;9071;48.220;14.480;2022-12-18T20:25:20;39.67;;;16.87;;
17890;SDS011;9071;48.220;14.480;2022-12-18T20:30:23;46.10;;;19.70;;
17890;SDS011;9071;48.220;14.480;2022-12-18T20:35:25;42.73;;;19.80;;
17890;SDS011;9071;48.220;14.480;2022-12-18T20:40:30;46.57;;;19.00;;
17890;SDS011;9071;48.220;14.480;2022-12-18T20:45:33;41.77;;;17.87;;
17890;SDS011;9071;48.220;14.480;2022-12-18T20:50:36;39.33;;;18.20;;
17890;SDS011;9071;48.220;14.480;2022-12-18T20:55:40;45.40;;;18.87;;
17890;SDS011;9071;48.220;14.480;2022-12-18T21:00:44;47.97;;;18.63;;
17890;SDS011;9071;48.220;14.480;2022-12-18T21:05:46;42.07;;;17.57;;
17890;SDS011;9071;48.220;14.480;2022-12-18T21:10:48;46.37;;;21.00;;
17890;SDS011;9071;48.220;14.480;2022-12-18T21:15:53;45.20;;;18.30;;
17890;SDS011;9071;48.220;14.480;2022-12-18T21:20:55;47.83;;;20.37;;
17890;SDS011;9071;48.220;14.480;2022-12-18T21:26:13;42.47;;;18.10;;
17890;SDS011;9071;48.220;14.480;2022-12-18T21:31:18;44.83;;;19.00;;
17890;SDS011;9071;48.220;14.480;2022-12-18T21:36:20;45.90;;;18.00;;
17890;SDS011;9071;48.220;14.480;2022-12-18T21:41:22;40.00;;;17.47;;
17890;SDS011;9071;48.220;14.480;2022-12-18T21:46:43;44.63;;;17.43;;
17890;SDS011;9071;48.220;14.480;2022-12-18T21:51:47;46.90;;;19.70;;
17890;SDS011;9071;48.220;14.480;2022-12-18T21:56:50;42.83;;;19.03;;
17890;SDS011;9071;48.220;14.480;2022-12-18T22:01:56;40.60;;;16.27;;
17890;SDS011;9071;48.220;14.480;2022-12-18T22:06:59;40.63;;;16.70;;
17890;SDS011;9071;48.220;14.480;2022-12-18T22:12:01;40.80;;;16.27;;
17890;SDS011;9071;48.220;14.480;2022-12-18T22:17:05;43.67;;;17.17;;
17890;SDS011;9071;48.220;14.480;2022-12-18T22:22:08;42.97;;;19.60;;
17890;SDS011;9071;48.220;14.480;2022-12-18T22:27:11;37.63;;;16.67;;
17890;SDS011;9071;48.220;14.480;2022-12-18T22:32:14;39.70;;;17.33;;
17890;SDS011;9071;48.220;14.480;2022-12-18T22:37:16;38.17;;;16.63;;
17890;SDS011;9071;48.220;14.480;2022-12-18T22:42:18;35.67;;;15.70;;
17890;SDS011;9071;48.220;14.480;2022-12-18T22:47:22;34.70;;;15.60;;
17890;SDS011;9071;48.220;14.480;2022-12-18T22:52:24;38.17;;;18.20;;
17890;SDS011;9071;48.220;14.480;2022-12-18T22:57:26;37.03;;;15.93;;
17890;SDS011;9071;48.220;14.480;2022-12-18T23:02:29;40.60;;;16.03;;
17890;SDS011;9071;48.220;14.480;2022-12-18T23:07:31;38.53;;;16.23;;
17890;SDS011;9071;48.220;14.480;2022-12-18T23:12:33;38.83;;;16.43;;
17890;SDS011;9071;48.220;14.480;2022-12-18T23:17:38;40.83;;;17.20;;
17890;SDS011;9071;48.220;14.480;2022-12-18T23:22:40;30.43;;;14.20;;
17890;SDS011;9071;48.220;14.480;2022-12-18T23:27:42;30.33;;;14.87;;
17890;SDS011;9071;48.220;14.480;2022-12-18T23:32:45;35.33;;;16.03;;
17890;SDS011;9071;48.220;14.480;2022-12-18T23:37:47;35.13;;;15.83;;
17890;SDS011;9071;48.220;14.480;2022-12-18T23:42:49;33.20;;;13.80;;
17890;SDS011;9071;48.220;14.480;2022-12-18T23:47:53;33.20;;;14.90;;
17890;SDS011;9071;48.220;14.480;2022-12-18T23:52:55;37.67;;;15.73;;
17890;SDS011;9071;48.220;14.480;2022-12-18T23:57:58;36.70;;;15.70;;
